createdAt,value
2017-06-29T00:00:11.845Z,48.5
2017-06-29T00:01:13.981Z,48.1
2017-06-29T00:02:16.117Z,48.5
2017-06-29T00:03:17.585Z,48.5
2017-06-29T00:04:19.374Z,48.4
2017-06-29T00:05:21.155Z,48.1
2017-06-29T00:06:23.291Z,48.1
2017-06-29T00:07:25.096Z,48.1
2017-06-29T00:08:26.882Z,48.1
2017-06-29T00:09:28.355Z,48.3
2017-06-29T00:10:30.493Z,48.2
2017-06-29T00:11:32.630Z,48.3
2017-06-29T00:12:34.434Z,48.2
2017-06-29T00:13:36.238Z,48.1
2017-06-29T00:14:38.024Z,48.1
2017-06-29T00:15:39.842Z,48.1
2017-06-29T00:16:41.642Z,48
2017-06-29T00:17:43.447Z,48.4
2017-06-29T00:18:45.580Z,48
2017-06-29T00:19:47.052Z,48.1
2017-06-29T00:20:49.190Z,48.2
2017-06-29T00:21:50.993Z,48.2
2017-06-29T00:22:53.127Z,48.1
2017-06-29T00:23:54.908Z,48.1
2017-06-29T00:24:57.048Z,48.3
2017-06-29T00:25:58.851Z,48.1
2017-06-29T00:27:00.989Z,48.2
2017-06-29T00:28:02.768Z,48.4
2017-06-29T00:29:04.242Z,48.3
2017-06-29T00:30:06.026Z,48.2
2017-06-29T00:31:06.808Z,48.1
2017-06-29T00:32:08.294Z,48.1
2017-06-29T00:33:10.431Z,48.1
2017-06-29T00:34:12.235Z,48.1
2017-06-29T00:35:14.036Z,48.3
2017-06-29T00:36:15.816Z,48.5
2017-06-29T00:37:17.622Z,48.2
2017-06-29T00:38:19.782Z,48.1
2017-06-29T00:39:21.920Z,48.4
2017-06-29T00:40:23.398Z,48.1
2017-06-29T00:41:25.534Z,48.3
2017-06-29T00:42:27.669Z,48.1
2017-06-29T00:43:29.807Z,48.2
2017-06-29T00:44:31.279Z,48.1
2017-06-29T00:45:33.084Z,48.3
2017-06-29T00:46:35.221Z,48.1
2017-06-29T00:47:37.390Z,48.2
2017-06-29T00:48:39.526Z,48
2017-06-29T00:49:41.661Z,48.1
2017-06-29T00:50:43.135Z,48.1
2017-06-29T00:51:44.937Z,48.2
2017-06-29T00:52:46.740Z,48.1
2017-06-29T00:53:48.228Z,48.4
2017-06-29T00:54:49.680Z,48.2
2017-06-29T00:55:51.818Z,48.2
2017-06-29T00:56:53.287Z,48.2
2017-06-29T00:57:55.425Z,48
2017-06-29T00:58:56.542Z,48.2
2017-06-29T00:59:58.679Z,48.2
2017-06-29T01:01:00.477Z,48.2
2017-06-29T01:02:02.282Z,48.3
2017-06-29T01:03:04.086Z,48.2
2017-06-29T01:04:05.891Z,48.1
2017-06-29T01:05:08.043Z,48.1
2017-06-29T01:06:09.488Z,48.1
2017-06-29T01:07:11.632Z,48.3
2017-06-29T01:08:13.768Z,48.2
2017-06-29T01:09:15.906Z,48.2
2017-06-29T01:10:18.044Z,48.3
2017-06-29T01:11:19.826Z,48.3
2017-06-29T01:12:21.631Z,48.2
2017-06-29T01:13:23.769Z,48.2
2017-06-29T01:14:25.593Z,48.2
2017-06-29T01:15:27.048Z,48
2017-06-29T01:16:28.519Z,48.1
2017-06-29T01:17:30.296Z,48.1
2017-06-29T01:18:32.097Z,48
2017-06-29T01:19:33.900Z,48.2
2017-06-29T01:20:35.683Z,48.1
2017-06-29T01:21:37.484Z,48.3
2017-06-29T01:22:39.291Z,48.1
2017-06-29T01:23:41.431Z,48.3
2017-06-29T01:24:43.566Z,48.3
2017-06-29T01:25:45.039Z,48.3
2017-06-29T01:26:47.174Z,48.3
2017-06-29T01:27:49.310Z,48.3
2017-06-29T01:28:51.112Z,48
2017-06-29T01:29:53.251Z,48.3
2017-06-29T01:30:55.056Z,48.3
2017-06-29T01:31:56.859Z,48.3
2017-06-29T01:32:58.995Z,48.2
2017-06-29T01:34:01.131Z,48.3
2017-06-29T01:35:02.938Z,48.3
2017-06-29T01:36:04.741Z,48.1
2017-06-29T01:37:06.191Z,48.1
2017-06-29T01:38:08.326Z,48.1
2017-06-29T01:39:10.155Z,48.1
2017-06-29T01:40:11.958Z,48.3
2017-06-29T01:41:13.742Z,48.3
2017-06-29T01:42:15.880Z,48.2
2017-06-29T01:43:18.018Z,48.3
2017-06-29T01:44:19.492Z,48.1
2017-06-29T01:45:21.296Z,48.1
2017-06-29T01:46:23.436Z,48.1
2017-06-29T01:47:25.574Z,48.3
2017-06-29T01:48:27.711Z,48.1
2017-06-29T01:49:29.162Z,48.3
2017-06-29T01:50:30.945Z,48.1
2017-06-29T01:51:33.082Z,48.2
2017-06-29T01:52:34.890Z,48.3
2017-06-29T01:53:36.690Z,48
2017-06-29T01:54:37.811Z,48.4
2017-06-29T01:55:39.286Z,48.2
2017-06-29T01:56:41.091Z,48.1
2017-06-29T01:57:43.228Z,48.2
2017-06-29T01:58:45.013Z,48.1
2017-06-29T01:59:46.486Z,48.3
2017-06-29T02:00:48.622Z,48.2
2017-06-29T02:01:50.075Z,48.2
2017-06-29T02:02:52.211Z,48.3
2017-06-29T02:03:54.347Z,48.1
2017-06-29T02:04:56.154Z,48
2017-06-29T02:05:58.290Z,48.4
2017-06-29T02:07:00.094Z,48.1
2017-06-29T02:08:02.230Z,48.3
2017-06-29T02:09:04.370Z,48.3
2017-06-29T02:10:06.172Z,48.5
2017-06-29T02:11:07.955Z,48.1
2017-06-29T02:12:09.763Z,48.1
2017-06-29T02:13:11.546Z,48.2
2017-06-29T02:14:13.683Z,48.3
2017-06-29T02:15:15.489Z,48.5
2017-06-29T02:16:17.626Z,48.2
2017-06-29T02:17:19.430Z,48.3
2017-06-29T02:18:21.567Z,48.3
2017-06-29T02:19:23.732Z,48.1
2017-06-29T02:20:25.917Z,48.1
2017-06-29T02:21:27.720Z,48
2017-06-29T02:22:29.170Z,48.1
2017-06-29T02:23:31.007Z,48.2
2017-06-29T02:24:32.822Z,48.7
2017-06-29T02:25:34.296Z,48.1
2017-06-29T02:26:36.105Z,48.3
2017-06-29T02:27:37.563Z,48.5
2017-06-29T02:28:39.702Z,48.3
2017-06-29T02:29:41.503Z,48.3
2017-06-29T02:30:43.645Z,48.4
2017-06-29T02:31:45.781Z,48
2017-06-29T02:32:47.252Z,48.3
2017-06-29T02:33:49.055Z,48.5
2017-06-29T02:34:51.193Z,48.2
2017-06-29T02:35:52.998Z,48.4
2017-06-29T02:36:54.803Z,48.4
2017-06-29T02:37:56.249Z,48.5
2017-06-29T02:38:58.057Z,48.6
2017-06-29T02:40:00.192Z,48.4
2017-06-29T02:41:01.991Z,48.5
2017-06-29T02:42:04.127Z,48.4
2017-06-29T02:43:05.971Z,48.4
2017-06-29T02:44:07.773Z,48.4
2017-06-29T02:45:09.908Z,48.4
2017-06-29T02:46:11.691Z,48.5
2017-06-29T02:47:13.162Z,48.4
2017-06-29T02:48:14.611Z,48.5
2017-06-29T02:49:16.418Z,48.4
2017-06-29T02:50:18.553Z,48.6
2017-06-29T02:51:20.335Z,48.4
2017-06-29T02:52:22.140Z,48.5
2017-06-29T02:53:23.605Z,48.4
2017-06-29T02:54:25.071Z,48.4
2017-06-29T02:55:27.203Z,48.3
2017-06-29T02:56:28.330Z,48.4
2017-06-29T02:57:30.466Z,48.4
2017-06-29T02:58:32.268Z,48.4
2017-06-29T02:59:34.403Z,48.4
2017-06-29T03:00:36.212Z,48.3
2017-06-29T03:01:38.030Z,48.2
2017-06-29T03:02:39.480Z,48.3
2017-06-29T03:03:41.616Z,48.5
2017-06-29T03:04:43.092Z,48.5
2017-06-29T03:05:44.536Z,48.4
2017-06-29T03:06:46.009Z,48.7
2017-06-29T03:07:48.148Z,48.5
2017-06-29T03:08:50.285Z,48.4
2017-06-29T03:09:51.760Z,48.5
2017-06-29T03:10:53.233Z,48.3
2017-06-29T03:11:55.376Z,48.3
2017-06-29T03:12:57.513Z,48.5
2017-06-29T03:13:59.652Z,48.5
2017-06-29T03:15:01.456Z,48.5
2017-06-29T03:16:03.256Z,48.4
2017-06-29T03:17:05.059Z,48.4
2017-06-29T03:18:07.199Z,48.5
2017-06-29T03:19:09.007Z,48.5
2017-06-29T03:20:10.811Z,48.5
2017-06-29T03:21:11.602Z,48.5
2017-06-29T03:22:13.048Z,48.3
2017-06-29T03:23:14.522Z,48.4
2017-06-29T03:24:16.316Z,48.4
2017-06-29T03:25:18.444Z,48.3
2017-06-29T03:26:19.569Z,48.3
2017-06-29T03:27:21.346Z,48.4
2017-06-29T03:28:23.131Z,48.3
2017-06-29T03:29:24.916Z,48.3
2017-06-29T03:30:26.722Z,48.4
2017-06-29T03:31:28.526Z,48.5
2017-06-29T03:32:30.666Z,48.4
2017-06-29T03:33:32.123Z,48.4
2017-06-29T03:34:33.588Z,48.4
2017-06-29T03:35:35.371Z,48.5
2017-06-29T03:36:37.176Z,48.4
2017-06-29T03:37:38.982Z,48.4
2017-06-29T03:38:41.119Z,48.4
2017-06-29T03:39:43.268Z,48.3
2017-06-29T03:40:45.406Z,48.4
2017-06-29T03:41:46.874Z,48.4
2017-06-29T03:42:49.016Z,48.5
2017-06-29T03:43:51.157Z,48.5
2017-06-29T03:44:52.960Z,48.5
2017-06-29T03:45:54.746Z,48.3
2017-06-29T03:46:56.528Z,48.3
2017-06-29T03:47:57.982Z,48.3
2017-06-29T03:48:59.787Z,48.4
2017-06-29T03:50:01.590Z,48.5
2017-06-29T03:51:03.393Z,48.4
2017-06-29T03:52:04.529Z,48.5
2017-06-29T03:53:06.363Z,48.4
2017-06-29T03:54:07.812Z,48.4
2017-06-29T03:55:09.967Z,48.4
2017-06-29T03:56:12.107Z,48.3
2017-06-29T03:57:13.908Z,48.4
2017-06-29T03:58:15.693Z,48.4
2017-06-29T03:59:17.833Z,48.3
2017-06-29T04:00:19.970Z,48.3
2017-06-29T04:01:21.466Z,48.5
2017-06-29T04:02:22.941Z,48.3
2017-06-29T04:03:24.723Z,48.4
2017-06-29T04:04:26.527Z,48.5
2017-06-29T04:05:28.335Z,48.5
2017-06-29T04:06:30.478Z,48.4
2017-06-29T04:07:32.614Z,48.3
2017-06-29T04:08:34.420Z,48.4
2017-06-29T04:09:35.891Z,48.5
2017-06-29T04:10:37.348Z,48.3
2017-06-29T04:11:39.253Z,48.4
2017-06-29T04:12:41.057Z,48.3
2017-06-29T04:13:42.538Z,48.4
2017-06-29T04:14:43.679Z,48.4
2017-06-29T04:15:45.814Z,48.5
2017-06-29T04:16:47.598Z,48.5
2017-06-29T04:17:49.737Z,48.4
2017-06-29T04:18:51.190Z,48.5
2017-06-29T04:19:53.327Z,48.5
2017-06-29T04:20:54.451Z,48.5
2017-06-29T04:21:56.253Z,48.5
2017-06-29T04:22:58.054Z,48.4
2017-06-29T04:23:59.505Z,48.3
2017-06-29T04:25:00.979Z,48.4
2017-06-29T04:26:02.454Z,48.3
2017-06-29T04:27:04.236Z,48.4
2017-06-29T04:28:06.374Z,48.5
2017-06-29T04:29:08.179Z,48.5
2017-06-29T04:30:09.315Z,48.4
2017-06-29T04:31:11.452Z,48.4
2017-06-29T04:32:13.256Z,48.5
2017-06-29T04:33:15.064Z,48.3
2017-06-29T04:34:16.890Z,48.4
2017-06-29T04:35:18.724Z,48.6
2017-06-29T04:36:20.196Z,48.4
2017-06-29T04:37:22.002Z,48.4
2017-06-29T04:38:23.122Z,48.4
2017-06-29T04:39:25.264Z,48.2
2017-06-29T04:40:27.069Z,48.4
2017-06-29T04:41:28.881Z,48.4
2017-06-29T04:42:31.021Z,48.3
2017-06-29T04:43:32.139Z,48.3
2017-06-29T04:44:33.938Z,48.6
2017-06-29T04:45:35.719Z,48.6
2017-06-29T04:46:37.857Z,48.2
2017-06-29T04:47:39.667Z,48.6
2017-06-29T04:48:41.803Z,48.5
2017-06-29T04:49:43.258Z,48.4
2017-06-29T04:50:45.051Z,48.6
2017-06-29T04:51:46.853Z,48.2
2017-06-29T04:52:48.665Z,48.3
2017-06-29T04:53:50.805Z,48.1
2017-06-29T04:54:52.255Z,48.1
2017-06-29T04:55:53.709Z,48.1
2017-06-29T04:56:55.846Z,48.3
2017-06-29T04:57:57.983Z,48.5
2017-06-29T04:59:00.125Z,48.1
2017-06-29T05:00:02.261Z,48.4
2017-06-29T05:01:04.397Z,48.1
2017-06-29T05:02:06.203Z,48.1
2017-06-29T05:03:08.339Z,48.3
2017-06-29T05:04:10.479Z,48.1
2017-06-29T05:05:11.937Z,48.1
2017-06-29T05:06:13.736Z,48.4
2017-06-29T05:07:15.548Z,48.3
2017-06-29T05:08:17.685Z,48.1
2017-06-29T05:09:19.490Z,48.1
2017-06-29T05:10:21.298Z,48
2017-06-29T05:11:22.416Z,48
2017-06-29T05:12:24.223Z,48.1
2017-06-29T05:13:25.691Z,48.2
2017-06-29T05:14:27.498Z,48
2017-06-29T05:15:29.282Z,48.1
2017-06-29T05:16:31.421Z,48.1
2017-06-29T05:17:32.206Z,48.2
2017-06-29T05:18:33.989Z,48.1
2017-06-29T05:19:35.793Z,48
2017-06-29T05:20:37.269Z,48.2
2017-06-29T05:21:38.726Z,48.2
2017-06-29T05:22:40.526Z,48.3
2017-06-29T05:23:41.646Z,48.8
2017-06-29T05:24:43.430Z,48
2017-06-29T05:25:45.573Z,48.3
2017-06-29T05:26:47.374Z,48.3
2017-06-29T05:27:49.179Z,48.3
2017-06-29T05:28:50.961Z,48.4
2017-06-29T05:29:52.774Z,48.1
2017-06-29T05:30:54.577Z,48
2017-06-29T05:31:56.715Z,48.1
2017-06-29T05:32:58.191Z,48.1
2017-06-29T05:33:59.662Z,48.1
2017-06-29T05:35:01.798Z,48.1
2017-06-29T05:36:03.934Z,48.3
2017-06-29T05:37:06.070Z,48.1
2017-06-29T05:38:07.541Z,48
2017-06-29T05:39:09.348Z,48.1
2017-06-29T05:40:11.177Z,48.1
2017-06-29T05:41:13.314Z,48
2017-06-29T05:42:15.120Z,48.6
2017-06-29T05:43:16.927Z,47.5
2017-06-29T05:44:18.734Z,47.7
2017-06-29T05:45:20.870Z,47.7
2017-06-29T05:46:23.007Z,48.1
2017-06-29T05:47:24.810Z,48
2017-06-29T05:48:26.949Z,47.7
2017-06-29T05:49:29.085Z,47.7
2017-06-29T05:50:30.559Z,47.9
2017-06-29T05:51:32.363Z,47.7
2017-06-29T05:52:34.169Z,48
2017-06-29T05:53:35.614Z,48.3
2017-06-29T05:54:37.752Z,47.8
2017-06-29T05:55:39.557Z,48.3
2017-06-29T05:56:41.367Z,47.9
2017-06-29T05:57:43.170Z,47.8
2017-06-29T05:58:44.951Z,48.1
2017-06-29T05:59:46.404Z,47.7
2017-06-29T06:00:47.878Z,47.8
2017-06-29T06:01:50.015Z,47.8
2017-06-29T06:02:52.152Z,48.2
2017-06-29T06:03:54.288Z,48
2017-06-29T06:04:56.143Z,47.9
2017-06-29T06:05:57.597Z,47.9
2017-06-29T06:06:59.079Z,47.8
2017-06-29T06:08:00.862Z,47.7
2017-06-29T06:09:02.670Z,47.8
2017-06-29T06:10:04.810Z,47.9
2017-06-29T06:11:06.957Z,47.9
2017-06-29T06:12:08.404Z,48
2017-06-29T06:13:10.210Z,48
2017-06-29T06:14:12.347Z,47.9
2017-06-29T06:15:14.491Z,47.8
2017-06-29T06:16:16.291Z,47.9
2017-06-29T06:17:18.097Z,48
2017-06-29T06:18:19.562Z,48.1
2017-06-29T06:19:21.703Z,47.8
2017-06-29T06:20:23.164Z,48.2
2017-06-29T06:21:25.299Z,47.9
2017-06-29T06:22:27.104Z,48
2017-06-29T06:23:28.910Z,48.1
2017-06-29T06:24:31.051Z,48.1
2017-06-29T06:25:32.520Z,47.8
2017-06-29T06:26:34.323Z,48.1
2017-06-29T06:27:36.145Z,47.8
2017-06-29T06:28:37.955Z,47.6
2017-06-29T06:29:39.739Z,47.8
2017-06-29T06:30:40.882Z,47.6
2017-06-29T06:31:43.020Z,47.8
2017-06-29T06:32:44.827Z,48
2017-06-29T06:33:46.303Z,47.9
2017-06-29T06:34:48.443Z,47.5
2017-06-29T06:35:50.251Z,48
2017-06-29T06:36:52.390Z,47.8
2017-06-29T06:37:54.525Z,47.7
2017-06-29T06:38:56.665Z,47.4
2017-06-29T06:39:58.810Z,47.7
2017-06-29T06:41:00.285Z,47.2
2017-06-29T06:42:02.421Z,47.2
2017-06-29T06:43:04.226Z,47.2
2017-06-29T06:44:05.679Z,47.8
2017-06-29T06:45:07.489Z,47.2
2017-06-29T06:46:09.618Z,47.4
2017-06-29T06:47:11.402Z,47.7
2017-06-29T06:48:13.541Z,47.5
2017-06-29T06:49:14.997Z,47.3
2017-06-29T06:50:16.808Z,47.4
2017-06-29T06:51:18.942Z,47.7
2017-06-29T06:52:20.748Z,47.2
2017-06-29T06:53:22.530Z,47.7
2017-06-29T06:54:24.669Z,47.5
2017-06-29T06:55:26.144Z,47.4
2017-06-29T06:56:27.618Z,47.8
2017-06-29T06:57:29.756Z,47.3
2017-06-29T06:58:31.544Z,47.7
2017-06-29T06:59:33.351Z,47.2
2017-06-29T07:00:34.829Z,47.3
2017-06-29T07:01:36.966Z,47.7
2017-06-29T07:02:38.753Z,47.4
2017-06-29T07:03:40.556Z,47.7
2017-06-29T07:04:42.342Z,47.5
2017-06-29T07:05:43.790Z,47.1
2017-06-29T07:06:45.928Z,47.1
2017-06-29T07:07:48.067Z,47.4
2017-06-29T07:08:49.523Z,47.6
2017-06-29T07:09:51.310Z,47.7
2017-06-29T07:10:52.760Z,47.5
2017-06-29T07:11:54.567Z,47.7
2017-06-29T07:12:56.374Z,47.5
2017-06-29T07:13:58.510Z,47.6
2017-06-29T07:14:59.635Z,47.4
2017-06-29T07:16:01.776Z,47.5
2017-06-29T07:17:02.903Z,47.6
2017-06-29T07:18:04.380Z,47.6
2017-06-29T07:19:06.188Z,47.3
2017-06-29T07:20:07.639Z,47.3
2017-06-29T07:21:09.779Z,47.5
2017-06-29T07:22:11.585Z,47.5
2017-06-29T07:23:13.370Z,47.6
2017-06-29T07:24:14.824Z,47.6
2017-06-29T07:25:16.964Z,47.6
2017-06-29T07:26:18.779Z,47.4
2017-06-29T07:27:19.898Z,47.5
2017-06-29T07:28:21.354Z,47.4
2017-06-29T07:29:23.493Z,47.3
2017-06-29T07:30:25.273Z,47.3
2017-06-29T07:31:26.750Z,47.3
2017-06-29T07:32:28.887Z,47.2
2017-06-29T07:33:30.339Z,47.2
2017-06-29T07:34:32.479Z,47.3
2017-06-29T07:35:34.616Z,47.2
2017-06-29T07:36:36.753Z,47.4
2017-06-29T07:37:38.562Z,47.3
2017-06-29T07:38:40.367Z,47.2
2017-06-29T07:39:42.506Z,47.1
2017-06-29T07:40:44.642Z,47.3
2017-06-29T07:41:46.113Z,47.1
2017-06-29T07:42:48.267Z,47.4
2017-06-29T07:43:50.396Z,47.2
2017-06-29T07:44:52.537Z,46.9
2017-06-29T07:45:54.673Z,47
2017-06-29T07:46:56.479Z,47
2017-06-29T07:47:58.283Z,47.2
2017-06-29T07:49:00.064Z,46.9
2017-06-29T07:50:02.202Z,47.4
2017-06-29T07:51:03.673Z,47.2
2017-06-29T07:52:05.819Z,47.3
2017-06-29T07:53:07.673Z,46.9
2017-06-29T07:54:09.478Z,47.2
2017-06-29T07:55:11.281Z,47.3
2017-06-29T07:56:13.089Z,47.2
2017-06-29T07:57:14.897Z,47.2
2017-06-29T07:58:16.350Z,47.3
2017-06-29T07:59:18.155Z,47.2
2017-06-29T08:00:20.294Z,47.1
2017-06-29T08:01:22.101Z,47.2
2017-06-29T08:02:23.905Z,47.1
2017-06-29T08:03:25.809Z,47.2
2017-06-29T08:04:27.938Z,47
2017-06-29T08:05:29.720Z,47
2017-06-29T08:06:31.525Z,47.2
2017-06-29T08:07:32.642Z,47.1
2017-06-29T08:08:34.780Z,47.1
2017-06-29T08:09:36.560Z,47.1
2017-06-29T08:10:38.699Z,47.2
2017-06-29T08:11:39.818Z,47
2017-06-29T08:12:41.957Z,47
2017-06-29T08:13:44.197Z,47
2017-06-29T08:14:45.648Z,47.2
2017-06-29T08:15:47.121Z,47
2017-06-29T08:16:48.594Z,47
2017-06-29T08:17:50.733Z,47.1
2017-06-29T08:18:52.517Z,46.8
2017-06-29T08:19:54.654Z,46.9
2017-06-29T08:20:56.442Z,46.9
2017-06-29T08:21:58.225Z,47
2017-06-29T08:22:59.695Z,46.8
2017-06-29T08:24:01.831Z,46.9
2017-06-29T08:25:03.304Z,46.9
2017-06-29T08:26:05.083Z,47.2
2017-06-29T08:27:07.224Z,47.2
2017-06-29T08:28:08.363Z,46.9
2017-06-29T08:29:09.822Z,46.9
2017-06-29T08:30:11.605Z,46.8
2017-06-29T08:31:13.085Z,46.9
2017-06-29T08:32:14.560Z,47
2017-06-29T08:33:16.695Z,47.1
2017-06-29T08:34:18.836Z,46.9
2017-06-29T08:35:20.643Z,47
2017-06-29T08:36:22.784Z,46.9
2017-06-29T08:37:24.589Z,46.9
2017-06-29T08:38:26.727Z,46.9
2017-06-29T08:39:28.235Z,46.9
2017-06-29T08:40:30.063Z,46.9
2017-06-29T08:41:31.542Z,46.8
2017-06-29T08:42:33.352Z,46.7
2017-06-29T08:43:35.153Z,46.9
2017-06-29T08:44:37.294Z,46.9
2017-06-29T08:45:39.099Z,46.6
2017-06-29T08:46:40.909Z,46.7
2017-06-29T08:47:43.047Z,46.7
2017-06-29T08:48:44.168Z,46.7
2017-06-29T08:49:45.977Z,46.4
2017-06-29T08:50:48.116Z,46.6
2017-06-29T08:51:49.924Z,46.6
2017-06-29T08:52:51.045Z,46.6
2017-06-29T08:53:52.831Z,46.7
2017-06-29T08:54:55.068Z,46.5
2017-06-29T08:55:56.875Z,46.8
2017-06-29T08:56:59.012Z,46.5
2017-06-29T08:58:00.462Z,46.6
2017-06-29T08:59:02.270Z,46.5
2017-06-29T09:00:04.409Z,46.7
2017-06-29T09:01:06.220Z,46.5
2017-06-29T09:02:07.668Z,46.4
2017-06-29T09:03:09.117Z,46.9
2017-06-29T09:04:10.906Z,46.5
2017-06-29T09:05:12.741Z,46.3
2017-06-29T09:06:14.880Z,46.4
2017-06-29T09:07:16.022Z,46.4
2017-06-29T09:08:17.491Z,46.4
2017-06-29T09:09:18.966Z,46.3
2017-06-29T09:10:21.104Z,46.5
2017-06-29T09:11:22.910Z,46.7
2017-06-29T09:12:25.050Z,46.5
2017-06-29T09:13:27.209Z,46.5
2017-06-29T09:14:29.357Z,46.2
2017-06-29T09:15:31.497Z,46.5
2017-06-29T09:16:32.947Z,46.7
2017-06-29T09:17:34.736Z,46.3
2017-06-29T09:18:36.889Z,46.7
2017-06-29T09:19:38.687Z,46.2
2017-06-29T09:20:40.827Z,46.5
2017-06-29T09:21:42.636Z,46.3
2017-06-29T09:22:44.441Z,46.2
2017-06-29T09:23:46.582Z,46.3
2017-06-29T09:24:48.040Z,46.4
2017-06-29T09:25:49.509Z,46.4
2017-06-29T09:26:50.981Z,46.4
2017-06-29T09:27:52.767Z,46.4
2017-06-29T09:28:54.240Z,46.3
2017-06-29T09:29:56.387Z,46.3
2017-06-29T09:30:58.528Z,46.4
2017-06-29T09:32:00.696Z,45.8
2017-06-29T09:33:02.843Z,45.8
2017-06-29T09:34:04.629Z,45.8
2017-06-29T09:35:06.435Z,46
2017-06-29T09:36:07.606Z,46.1
2017-06-29T09:37:09.745Z,46.2
2017-06-29T09:38:11.553Z,46.5
2017-06-29T09:39:13.361Z,46.5
2017-06-29T09:40:15.497Z,46.5
2017-06-29T09:41:17.307Z,46.1
2017-06-29T09:42:19.447Z,46
2017-06-29T09:43:21.587Z,46.4
2017-06-29T09:44:23.737Z,46.1
2017-06-29T09:45:25.871Z,46.1
2017-06-29T09:46:28.012Z,46.3
2017-06-29T09:47:29.486Z,46
2017-06-29T09:48:31.272Z,45.9
2017-06-29T09:49:33.076Z,46
2017-06-29T09:50:34.886Z,46
2017-06-29T09:51:37.026Z,45.8
2017-06-29T09:52:39.170Z,45.8
2017-06-29T09:53:40.640Z,45.8
2017-06-29T09:54:42.115Z,46
2017-06-29T09:55:43.565Z,46.1
2017-06-29T09:56:45.374Z,45.8
2017-06-29T09:57:47.187Z,45.9
2017-06-29T09:58:49.326Z,46
2017-06-29T09:59:51.465Z,45.8
2017-06-29T10:00:53.271Z,46
2017-06-29T10:01:55.408Z,46.1
2017-06-29T10:02:57.551Z,46.1
2017-06-29T10:03:59.328Z,45.9
2017-06-29T10:05:01.135Z,46.1
2017-06-29T10:06:02.612Z,45.7
2017-06-29T10:07:04.418Z,45.8
2017-06-29T10:08:06.227Z,45.7
2017-06-29T10:09:07.011Z,46
2017-06-29T10:10:09.153Z,45.5
2017-06-29T10:11:10.960Z,46
2017-06-29T10:12:12.846Z,45.7
2017-06-29T10:13:14.984Z,45.9
2017-06-29T10:14:16.776Z,45.7
2017-06-29T10:15:18.919Z,46.1
2017-06-29T10:16:20.713Z,45.7
2017-06-29T10:17:22.161Z,45.7
2017-06-29T10:18:24.302Z,45.9
2017-06-29T10:19:26.441Z,45.9
2017-06-29T10:20:28.226Z,45.8
2017-06-29T10:21:30.047Z,45.6
2017-06-29T10:22:31.848Z,45.9
2017-06-29T10:23:33.986Z,45.9
2017-06-29T10:24:35.441Z,45.9
2017-06-29T10:25:36.897Z,45.8
2017-06-29T10:26:39.034Z,45.6
2017-06-29T10:27:40.485Z,45.8
2017-06-29T10:28:42.629Z,45.7
2017-06-29T10:29:44.436Z,45.8
2017-06-29T10:30:45.907Z,45.8
2017-06-29T10:31:47.708Z,45.7
2017-06-29T10:32:49.493Z,45.6
2017-06-29T10:33:51.275Z,45.6
2017-06-29T10:34:53.417Z,45.6
2017-06-29T10:35:55.220Z,45.7
2017-06-29T10:36:56.343Z,45.5
2017-06-29T10:37:58.146Z,45.8
2017-06-29T10:38:59.955Z,45.6
2017-06-29T10:40:01.428Z,45.4
2017-06-29T10:41:03.214Z,45.5
2017-06-29T10:42:04.669Z,45.7
2017-06-29T10:43:06.471Z,45.6
2017-06-29T10:44:08.283Z,45.6
2017-06-29T10:45:10.067Z,45.6
2017-06-29T10:46:11.514Z,45.7
2017-06-29T10:47:13.317Z,45.6
2017-06-29T10:48:15.456Z,45.2
2017-06-29T10:49:17.264Z,45.2
2017-06-29T10:50:19.401Z,45.5
2017-06-29T10:51:21.185Z,45.4
2017-06-29T10:52:22.969Z,45.1
2017-06-29T10:53:25.113Z,45.1
2017-06-29T10:54:27.253Z,45.4
2017-06-29T10:55:29.057Z,45.3
2017-06-29T10:56:30.177Z,45.2
2017-06-29T10:57:31.628Z,45.3
2017-06-29T10:58:33.105Z,45.4
2017-06-29T10:59:34.558Z,45.1
2017-06-29T11:00:36.699Z,45.4
2017-06-29T11:01:38.147Z,45.4
2017-06-29T11:02:39.936Z,45.4
2017-06-29T11:03:42.078Z,45.5
2017-06-29T11:04:43.884Z,45.3
2017-06-29T11:05:45.691Z,45.2
2017-06-29T11:06:46.817Z,45.1
2017-06-29T11:07:48.621Z,45.5
2017-06-29T11:08:50.510Z,45.4
2017-06-29T11:09:51.964Z,44.6
2017-06-29T11:10:54.105Z,44.8
2017-06-29T11:11:56.247Z,45.2
2017-06-29T11:12:58.387Z,45.3
2017-06-29T11:14:00.194Z,44.8
2017-06-29T11:15:01.998Z,44.8
2017-06-29T11:16:03.779Z,44.7
2017-06-29T11:17:05.565Z,44.9
2017-06-29T11:18:07.375Z,45
2017-06-29T11:19:08.497Z,45
2017-06-29T11:20:10.305Z,44.9
2017-06-29T11:21:12.443Z,45
2017-06-29T11:22:14.583Z,44.7
2017-06-29T11:23:16.384Z,45
2017-06-29T11:24:18.625Z,45.2
2017-06-29T11:25:20.761Z,45
2017-06-29T11:26:22.573Z,45
2017-06-29T11:27:24.374Z,45
2017-06-29T11:28:26.512Z,44.9
2017-06-29T11:29:28.320Z,45.1
2017-06-29T11:30:29.773Z,44.8
2017-06-29T11:31:31.914Z,45.1
2017-06-29T11:32:33.721Z,44.8
2017-06-29T11:33:35.176Z,44.7
2017-06-29T11:34:36.982Z,44.7
2017-06-29T11:35:39.125Z,44.7
2017-06-29T11:36:40.599Z,44.5
2017-06-29T11:37:42.050Z,44.7
2017-06-29T11:38:43.168Z,44.7
2017-06-29T11:39:44.956Z,44.9
2017-06-29T11:40:47.089Z,44.8
2017-06-29T11:41:48.894Z,44.8
2017-06-29T11:42:50.343Z,44.8
2017-06-29T11:43:52.150Z,45
2017-06-29T11:44:54.289Z,44.8
2017-06-29T11:45:55.078Z,44.8
2017-06-29T11:46:56.861Z,44.8
2017-06-29T11:47:58.651Z,44.8
2017-06-29T11:49:00.456Z,44.8
2017-06-29T11:50:02.245Z,44.7
2017-06-29T11:51:03.714Z,44.5
2017-06-29T11:52:05.853Z,44.4
2017-06-29T11:53:06.997Z,44.5
2017-06-29T11:54:08.800Z,44.8
2017-06-29T11:55:10.607Z,44.4
2017-06-29T11:56:12.063Z,44.4
2017-06-29T11:57:14.199Z,44.7
2017-06-29T11:58:16.336Z,44.2
2017-06-29T11:59:18.475Z,44.4
2017-06-29T12:00:20.261Z,44.9
2017-06-29T12:01:22.069Z,44.7
2017-06-29T12:02:23.873Z,44.8
2017-06-29T12:03:25.345Z,44.6
2017-06-29T12:04:27.130Z,44.5
2017-06-29T12:05:28.939Z,44.5
2017-06-29T12:06:30.722Z,44.3
2017-06-29T12:07:32.863Z,44.2
2017-06-29T12:08:34.650Z,44.1
2017-06-29T12:09:36.108Z,44.1
2017-06-29T12:10:37.635Z,44.4
2017-06-29T12:11:39.080Z,44.5
2017-06-29T12:12:41.218Z,44.4
2017-06-29T12:13:42.672Z,44.4
2017-06-29T12:14:44.811Z,44.3
2017-06-29T12:15:46.596Z,44.1
2017-06-29T12:16:48.052Z,43.8
2017-06-29T12:17:49.526Z,43.8
2017-06-29T12:18:51.661Z,43.8
2017-06-29T12:19:53.800Z,43.8
2017-06-29T12:20:55.611Z,44.6
2017-06-29T12:21:57.413Z,43.9
2017-06-29T12:22:59.220Z,43.9
2017-06-29T12:24:01.358Z,44.3
2017-06-29T12:25:03.165Z,43.8
2017-06-29T12:26:04.972Z,44.1
2017-06-29T12:27:06.441Z,44
2017-06-29T12:28:08.247Z,43.8
2017-06-29T12:29:10.055Z,44.1
2017-06-29T12:30:12.195Z,44.1
2017-06-29T12:31:13.652Z,44.2
2017-06-29T12:32:15.100Z,43.8
2017-06-29T12:33:16.885Z,43.8
2017-06-29T12:34:18.335Z,44.1
2017-06-29T12:35:20.144Z,44
2017-06-29T12:36:21.948Z,43.7
2017-06-29T12:37:23.733Z,43.5
2017-06-29T12:38:25.205Z,44.3
2017-06-29T12:39:27.334Z,44.1
2017-06-29T12:40:28.788Z,44
2017-06-29T12:41:30.567Z,44.1
2017-06-29T12:42:32.374Z,43.9
2017-06-29T12:43:33.494Z,43.8
2017-06-29T12:44:35.293Z,43.9
2017-06-29T12:45:37.434Z,44
2017-06-29T12:46:39.241Z,44
2017-06-29T12:47:41.048Z,44
2017-06-29T12:48:42.521Z,43.7
2017-06-29T12:49:44.659Z,43.9
2017-06-29T12:50:46.115Z,43.8
2017-06-29T12:51:48.252Z,43.9
2017-06-29T12:52:50.062Z,44
2017-06-29T12:53:52.202Z,43.9
2017-06-29T12:54:53.985Z,44.2
2017-06-29T12:55:56.125Z,44.1
2017-06-29T12:56:57.577Z,44
2017-06-29T12:57:59.033Z,44
2017-06-29T12:59:00.842Z,44
2017-06-29T13:00:02.310Z,43.8
2017-06-29T13:01:03.428Z,43.9
2017-06-29T13:02:05.663Z,43.8
2017-06-29T13:03:07.802Z,43.8
2017-06-29T13:04:09.625Z,43.8
2017-06-29T13:05:11.426Z,44.2
2017-06-29T13:06:13.211Z,44
2017-06-29T13:07:15.100Z,44
2017-06-29T13:08:16.915Z,44.2
2017-06-29T13:09:18.722Z,43.8
2017-06-29T13:10:20.530Z,44
2017-06-29T13:11:21.982Z,43.9
2017-06-29T13:12:23.099Z,44
2017-06-29T13:13:25.235Z,43.7
2017-06-29T13:14:26.696Z,44
2017-06-29T13:15:27.811Z,44
2017-06-29T13:16:29.951Z,44.2
2017-06-29T13:17:31.422Z,44
2017-06-29T13:18:32.901Z,44.1
2017-06-29T13:19:35.040Z,44
2017-06-29T13:20:36.848Z,43.8
2017-06-29T13:21:38.656Z,44
2017-06-29T13:22:40.466Z,44
2017-06-29T13:23:42.275Z,44
2017-06-29T13:24:43.729Z,43.8
2017-06-29T13:25:45.537Z,43.8
2017-06-29T13:26:47.010Z,43.8
2017-06-29T13:27:48.819Z,43.8
2017-06-29T13:28:50.608Z,43.8
2017-06-29T13:29:52.415Z,43.8
2017-06-29T13:30:54.553Z,43.8
2017-06-29T13:31:56.365Z,43.9
2017-06-29T13:32:57.936Z,43.8
2017-06-29T13:33:59.731Z,43.7
2017-06-29T13:35:01.537Z,43.8
2017-06-29T13:36:02.985Z,43.9
2017-06-29T13:37:04.442Z,43.7
2017-06-29T13:38:06.630Z,43.4
2017-06-29T13:39:08.768Z,43.8
2017-06-29T13:40:10.911Z,43.8
2017-06-29T13:41:13.047Z,43.4
2017-06-29T13:42:14.498Z,43.8
2017-06-29T13:43:16.308Z,43.3
2017-06-29T13:44:18.442Z,43.8
2017-06-29T13:45:20.588Z,43.7
2017-06-29T13:46:22.396Z,43.6
2017-06-29T13:47:24.537Z,43.6